Terminal Aerodrome Forecast
Issued by NWS Milwaukee/Sullivan, WI

Home | Current Version | Previous Version | Text Only | Print | Product List | Glossary On
Versions: 1 2 3 4 5 6 7 8 9 10 11 12 13 14 15 16 17 18 19 20 21 22 23 24 25 26 27 28 29
000
FTUS43 KMKX 241955 AAA
TAFMSN
TAF AMD
KMSN 241955Z 2420/2518 30011G19KT P6SM BKN045
     FM242300 28009G17KT P6SM -SHRA VCTS BKN050CB
     FM250100 27006KT P6SM SCT200
     FM251400 29008G16KT P6SM BKN045=

USA.gov is the U.S. government's official web portal to all federal, state and local government web resources and services.